sensor_id;sensor_type;location;lat;lon;timestamp;temperature;humidity
67777;DHT22;54576;52.020;5.536;2022-11-15T00:01:59;7.20;99.90
67777;DHT22;54576;52.020;5.536;2022-11-15T00:04:28;7.20;99.90
67777;DHT22;54576;52.020;5.536;2022-11-15T00:06:54;7.20;99.90
67777;DHT22;54576;52.020;5.536;2022-11-15T00:09:21;7.30;99.90
67777;DHT22;54576;52.020;5.536;2022-11-15T00:11:51;7.30;99.90
67777;DHT22;54576;52.020;5.536;2022-11-15T00:14:16;7.30;99.90
67777;DHT22;54576;52.020;5.536;2022-11-15T00:16:44;7.30;99.90
67777;DHT22;54576;52.020;5.536;2022-11-15T00:19:09;7.40;99.90
67777;DHT22;54576;52.020;5.536;2022-11-15T00:21:35;7.40;99.90
67777;DHT22;54576;52.020;5.536;2022-11-15T00:24:01;7.40;99.90
67777;DHT22;54576;52.020;5.536;2022-11-15T00:26:26;7.40;99.90
67777;DHT22;54576;52.020;5.536;2022-11-15T00:28:52;7.50;99.90
67777;DHT22;54576;52.020;5.536;2022-11-15T00:31:18;7.50;99.90
67777;DHT22;54576;52.020;5.536;2022-11-15T00:33:44;7.50;99.90
67777;DHT22;54576;52.020;5.536;2022-11-15T00:36:11;7.50;99.90
67777;DHT22;54576;52.020;5.536;2022-11-15T00:38:40;7.50;99.90
67777;DHT22;54576;52.020;5.536;2022-11-15T00:41:06;7.60;99.90
67777;DHT22;54576;52.020;5.536;2022-11-15T00:43:32;7.50;99.90
67777;DHT22;54576;52.020;5.536;2022-11-15T00:45:58;7.50;99.90
67777;DHT22;54576;52.020;5.536;2022-11-15T00:48:24;7.60;99.90
67777;DHT22;54576;52.020;5.536;2022-11-15T00:50:50;7.60;99.90
67777;DHT22;54576;52.020;5.536;2022-11-15T00:53:18;7.60;99.90
67777;DHT22;54576;52.020;5.536;2022-11-15T00:55:51;7.60;99.90
67777;DHT22;54576;52.020;5.536;2022-11-15T00:58:19;7.60;99.90
67777;DHT22;54576;52.020;5.536;2022-11-15T01:00:45;7.60;99.90
67777;DHT22;54576;52.020;5.536;2022-11-15T01:03:10;7.70;99.90
67777;DHT22;54576;52.020;5.536;2022-11-15T01:05:40;7.70;99.90
67777;DHT22;54576;52.020;5.536;2022-11-15T01:08:06;7.70;99.90
67777;DHT22;54576;52.020;5.536;2022-11-15T01:10:33;7.70;99.90
67777;DHT22;54576;52.020;5.536;2022-11-15T01:12:58;7.70;99.90
67777;DHT22;54576;52.020;5.536;2022-11-15T01:15:24;7.70;99.90
67777;DHT22;54576;52.020;5.536;2022-11-15T01:17:51;7.70;99.90
67777;DHT22;54576;52.020;5.536;2022-11-15T01:20:17;7.80;99.90
67777;DHT22;54576;52.020;5.536;2022-11-15T01:22:42;7.80;99.90
67777;DHT22;54576;52.020;5.536;2022-11-15T01:25:08;7.80;99.90
67777;DHT22;54576;52.020;5.536;2022-11-15T01:27:33;7.80;99.90
67777;DHT22;54576;52.020;5.536;2022-11-15T01:29:59;7.80;99.90
67777;DHT22;54576;52.020;5.536;2022-11-15T01:32:25;7.90;99.90
67777;DHT22;54576;52.020;5.536;2022-11-15T01:34:50;7.90;99.90
67777;DHT22;54576;52.020;5.536;2022-11-15T01:37:16;7.90;99.90
67777;DHT22;54576;52.020;5.536;2022-11-15T01:39:41;7.90;99.90
67777;DHT22;54576;52.020;5.536;2022-11-15T01:42:12;7.90;99.90
67777;DHT22;54576;52.020;5.536;2022-11-15T01:44:43;7.90;99.90
67777;DHT22;54576;52.020;5.536;2022-11-15T01:47:15;8.00;99.90
67777;DHT22;54576;52.020;5.536;2022-11-15T01:49:56;8.00;99.90
67777;DHT22;54576;52.020;5.536;2022-11-15T01:52:25;8.00;99.90
67777;DHT22;54576;52.020;5.536;2022-11-15T01:55:19;8.00;99.90
67777;DHT22;54576;52.020;5.536;2022-11-15T01:57:43;8.10;99.90
67777;DHT22;54576;52.020;5.536;2022-11-15T02:00:11;8.20;99.90
67777;DHT22;54576;52.020;5.536;2022-11-15T02:02:37;8.20;99.90
67777;DHT22;54576;52.020;5.536;2022-11-15T02:05:03;8.30;99.90
67777;DHT22;54576;52.020;5.536;2022-11-15T02:07:31;8.30;99.90
67777;DHT22;54576;52.020;5.536;2022-11-15T02:10:04;8.40;99.90
67777;DHT22;54576;52.020;5.536;2022-11-15T02:12:31;8.40;99.90
67777;DHT22;54576;52.020;5.536;2022-11-15T02:14:57;8.40;99.90
67777;DHT22;54576;52.020;5.536;2022-11-15T02:17:41;8.50;99.90
67777;DHT22;54576;52.020;5.536;2022-11-15T02:28:59;8.60;99.90
67777;DHT22;54576;52.020;5.536;2022-11-15T02:37:34;8.80;99.90
67777;DHT22;54576;52.020;5.536;2022-11-15T02:40:30;8.90;99.90
67777;DHT22;54576;52.020;5.536;2022-11-15T02:43:11;8.90;99.90
67777;DHT22;54576;52.020;5.536;2022-11-15T02:46:12;9.00;99.90
67777;DHT22;54576;52.020;5.536;2022-11-15T02:48:39;9.00;99.90
67777;DHT22;54576;52.020;5.536;2022-11-15T02:51:05;9.10;99.90
67777;DHT22;54576;52.020;5.536;2022-11-15T02:53:31;9.10;99.90
67777;DHT22;54576;52.020;5.536;2022-11-15T02:55:58;9.20;99.90
67777;DHT22;54576;52.020;5.536;2022-11-15T02:58:56;9.20;99.90
67777;DHT22;54576;52.020;5.536;2022-11-15T03:04:56;9.30;99.90
67777;DHT22;54576;52.020;5.536;2022-11-15T03:07:54;9.30;99.90
67777;DHT22;54576;52.020;5.536;2022-11-15T03:10:39;9.40;99.90
67777;DHT22;54576;52.020;5.536;2022-11-15T03:15:47;9.40;99.90
67777;DHT22;54576;52.020;5.536;2022-11-15T03:18:23;9.40;99.90
67777;DHT22;54576;52.020;5.536;2022-11-15T03:20:51;9.40;99.90
67777;DHT22;54576;52.020;5.536;2022-11-15T03:23:17;9.50;99.90
67777;DHT22;54576;52.020;5.536;2022-11-15T03:25:48;9.50;99.90
67777;DHT22;54576;52.020;5.536;2022-11-15T03:28:22;9.50;99.90
67777;DHT22;54576;52.020;5.536;2022-11-15T03:30:51;9.50;99.90
67777;DHT22;54576;52.020;5.536;2022-11-15T03:33:21;9.60;99.90
67777;DHT22;54576;52.020;5.536;2022-11-15T03:35:49;9.60;99.90
67777;DHT22;54576;52.020;5.536;2022-11-15T03:38:45;9.60;99.90
67777;DHT22;54576;52.020;5.536;2022-11-15T03:41:28;9.60;99.90
67777;DHT22;54576;52.020;5.536;2022-11-15T03:44:03;9.70;99.90
67777;DHT22;54576;52.020;5.536;2022-11-15T03:46:47;9.70;99.90
67777;DHT22;54576;52.020;5.536;2022-11-15T03:49:24;9.70;99.90
67777;DHT22;54576;52.020;5.536;2022-11-15T03:51:51;9.80;99.90
67777;DHT22;54576;52.020;5.536;2022-11-15T03:54:16;9.80;99.90
67777;DHT22;54576;52.020;5.536;2022-11-15T03:56:42;9.80;99.90
67777;DHT22;54576;52.020;5.536;2022-11-15T03:59:07;9.90;99.90
67777;DHT22;54576;52.020;5.536;2022-11-15T04:01:33;9.90;99.90
67777;DHT22;54576;52.020;5.536;2022-11-15T04:03:58;9.90;99.90
67777;DHT22;54576;52.020;5.536;2022-11-15T04:06:26;10.00;99.90
67777;DHT22;54576;52.020;5.536;2022-11-15T04:08:51;10.00;99.90
67777;DHT22;54576;52.020;5.536;2022-11-15T04:11:17;10.00;99.90
67777;DHT22;54576;52.020;5.536;2022-11-15T04:13:42;10.00;99.90
67777;DHT22;54576;52.020;5.536;2022-11-15T04:16:08;10.10;99.90
67777;DHT22;54576;52.020;5.536;2022-11-15T04:18:33;10.10;99.90
67777;DHT22;54576;52.020;5.536;2022-11-15T04:20:59;10.10;99.90
67777;DHT22;54576;52.020;5.536;2022-11-15T04:23:45;10.10;99.90
67777;DHT22;54576;52.020;5.536;2022-11-15T04:26:29;10.10;99.90
67777;DHT22;54576;52.020;5.536;2022-11-15T04:28:55;10.10;99.90
67777;DHT22;54576;52.020;5.536;2022-11-15T04:31:39;10.10;99.90
67777;DHT22;54576;52.020;5.536;2022-11-15T04:34:04;10.10;99.90
67777;DHT22;54576;52.020;5.536;2022-11-15T04:36:30;10.10;99.90
67777;DHT22;54576;52.020;5.536;2022-11-15T04:39:14;10.20;99.90
67777;DHT22;54576;52.020;5.536;2022-11-15T04:41:39;10.20;99.90
67777;DHT22;54576;52.020;5.536;2022-11-15T04:44:05;10.20;99.90
67777;DHT22;54576;52.020;5.536;2022-11-15T04:46:30;10.20;99.90
67777;DHT22;54576;52.020;5.536;2022-11-15T04:48:56;10.20;99.90
67777;DHT22;54576;52.020;5.536;2022-11-15T04:51:23;10.20;99.90
67777;DHT22;54576;52.020;5.536;2022-11-15T04:53:48;10.30;99.90
67777;DHT22;54576;52.020;5.536;2022-11-15T04:56:15;10.20;99.90
67777;DHT22;54576;52.020;5.536;2022-11-15T04:58:42;10.30;99.90
67777;DHT22;54576;52.020;5.536;2022-11-15T05:01:13;10.30;99.90
67777;DHT22;54576;52.020;5.536;2022-11-15T05:03:42;10.30;99.90
67777;DHT22;54576;52.020;5.536;2022-11-15T05:06:27;10.30;99.90
67777;DHT22;54576;52.020;5.536;2022-11-15T05:08:55;10.30;99.90
67777;DHT22;54576;52.020;5.536;2022-11-15T05:11:21;10.30;99.90
67777;DHT22;54576;52.020;5.536;2022-11-15T05:13:46;10.40;99.90
67777;DHT22;54576;52.020;5.536;2022-11-15T05:16:12;10.40;99.90
67777;DHT22;54576;52.020;5.536;2022-11-15T05:18:37;10.40;99.90
67777;DHT22;54576;52.020;5.536;2022-11-15T05:21:14;10.40;99.90
67777;DHT22;54576;52.020;5.536;2022-11-15T05:23:44;10.40;99.90
67777;DHT22;54576;52.020;5.536;2022-11-15T05:26:09;10.40;99.90
67777;DHT22;54576;52.020;5.536;2022-11-15T05:28:36;10.40;99.90
67777;DHT22;54576;52.020;5.536;2022-11-15T05:31:03;10.40;99.90
67777;DHT22;54576;52.020;5.536;2022-11-15T05:33:30;10.40;99.90
67777;DHT22;54576;52.020;5.536;2022-11-15T05:36:10;10.40;99.90
67777;DHT22;54576;52.020;5.536;2022-11-15T05:38:37;10.40;99.90
67777;DHT22;54576;52.020;5.536;2022-11-15T05:41:05;10.50;99.90
67777;DHT22;54576;52.020;5.536;2022-11-15T05:43:32;10.50;99.90
67777;DHT22;54576;52.020;5.536;2022-11-15T05:46:02;10.50;99.90
67777;DHT22;54576;52.020;5.536;2022-11-15T05:48:28;10.50;99.90
67777;DHT22;54576;52.020;5.536;2022-11-15T05:50:54;10.50;99.90
67777;DHT22;54576;52.020;5.536;2022-11-15T05:53:21;10.60;99.90
67777;DHT22;54576;52.020;5.536;2022-11-15T05:55:49;10.60;99.90
67777;DHT22;54576;52.020;5.536;2022-11-15T05:58:15;10.60;99.90
67777;DHT22;54576;52.020;5.536;2022-11-15T06:00:41;10.60;99.90
67777;DHT22;54576;52.020;5.536;2022-11-15T06:03:08;10.60;99.90
67777;DHT22;54576;52.020;5.536;2022-11-15T06:05:34;10.60;99.90
67777;DHT22;54576;52.020;5.536;2022-11-15T06:08:00;10.70;99.90
67777;DHT22;54576;52.020;5.536;2022-11-15T06:10:27;10.70;99.90
67777;DHT22;54576;52.020;5.536;2022-11-15T06:13:04;10.70;99.90
67777;DHT22;54576;52.020;5.536;2022-11-15T06:15:30;10.70;99.90
67777;DHT22;54576;52.020;5.536;2022-11-15T06:17:57;10.70;99.90
67777;DHT22;54576;52.020;5.536;2022-11-15T06:20:24;10.80;99.90
67777;DHT22;54576;52.020;5.536;2022-11-15T06:22:49;10.80;99.90
67777;DHT22;54576;52.020;5.536;2022-11-15T06:25:15;10.80;99.90
67777;DHT22;54576;52.020;5.536;2022-11-15T06:27:40;10.80;99.90
67777;DHT22;54576;52.020;5.536;2022-11-15T06:30:06;10.80;99.90
67777;DHT22;54576;52.020;5.536;2022-11-15T06:32:32;10.80;99.90
67777;DHT22;54576;52.020;5.536;2022-11-15T06:34:57;10.90;99.90
67777;DHT22;54576;52.020;5.536;2022-11-15T06:37:23;10.80;99.90
67777;DHT22;54576;52.020;5.536;2022-11-15T06:39:48;10.90;99.90
67777;DHT22;54576;52.020;5.536;2022-11-15T06:42:14;10.90;99.90
67777;DHT22;54576;52.020;5.536;2022-11-15T06:44:39;10.90;99.90
67777;DHT22;54576;52.020;5.536;2022-11-15T06:47:05;10.90;99.90
67777;DHT22;54576;52.020;5.536;2022-11-15T06:49:30;10.90;99.90
67777;DHT22;54576;52.020;5.536;2022-11-15T06:51:56;10.90;99.90
67777;DHT22;54576;52.020;5.536;2022-11-15T06:54:22;10.90;99.90
67777;DHT22;54576;52.020;5.536;2022-11-15T06:56:47;10.90;99.90
67777;DHT22;54576;52.020;5.536;2022-11-15T06:59:13;10.90;99.90
67777;DHT22;54576;52.020;5.536;2022-11-15T07:01:38;10.90;99.90
67777;DHT22;54576;52.020;5.536;2022-11-15T07:04:04;10.90;99.90
67777;DHT22;54576;52.020;5.536;2022-11-15T07:06:29;11.00;99.90
67777;DHT22;54576;52.020;5.536;2022-11-15T07:08:55;11.00;99.90
67777;DHT22;54576;52.020;5.536;2022-11-15T07:11:20;11.00;99.90
67777;DHT22;54576;52.020;5.536;2022-11-15T07:13:46;11.00;99.90
67777;DHT22;54576;52.020;5.536;2022-11-15T07:16:11;11.00;99.90
67777;DHT22;54576;52.020;5.536;2022-11-15T07:18:39;11.00;99.90
67777;DHT22;54576;52.020;5.536;2022-11-15T07:21:07;11.00;99.90
67777;DHT22;54576;52.020;5.536;2022-11-15T07:23:35;11.00;99.90
67777;DHT22;54576;52.020;5.536;2022-11-15T07:26:01;11.00;99.90
67777;DHT22;54576;52.020;5.536;2022-11-15T07:28:26;11.00;99.90
67777;DHT22;54576;52.020;5.536;2022-11-15T07:30:52;11.00;99.90
67777;DHT22;54576;52.020;5.536;2022-11-15T07:33:17;11.00;99.90
67777;DHT22;54576;52.020;5.536;2022-11-15T07:35:43;11.00;99.90
67777;DHT22;54576;52.020;5.536;2022-11-15T07:38:11;11.00;99.90
67777;DHT22;54576;52.020;5.536;2022-11-15T07:40:37;11.00;99.90
67777;DHT22;54576;52.020;5.536;2022-11-15T07:43:04;11.10;99.90
67777;DHT22;54576;52.020;5.536;2022-11-15T07:45:30;11.10;99.90
67777;DHT22;54576;52.020;5.536;2022-11-15T07:47:56;11.00;99.90
67777;DHT22;54576;52.020;5.536;2022-11-15T07:50:22;11.10;99.90
67777;DHT22;54576;52.020;5.536;2022-11-15T07:52:54;11.10;99.90
67777;DHT22;54576;52.020;5.536;2022-11-15T07:55:20;11.10;99.90
67777;DHT22;54576;52.020;5.536;2022-11-15T07:57:45;11.10;99.90
67777;DHT22;54576;52.020;5.536;2022-11-15T08:00:11;11.10;99.90
67777;DHT22;54576;52.020;5.536;2022-11-15T08:02:37;11.10;99.90
67777;DHT22;54576;52.020;5.536;2022-11-15T08:05:02;11.10;99.90
67777;DHT22;54576;52.020;5.536;2022-11-15T08:07:30;11.10;99.90
67777;DHT22;54576;52.020;5.536;2022-11-15T08:09:56;11.10;99.90
67777;DHT22;54576;52.020;5.536;2022-11-15T08:12:22;11.10;99.90
67777;DHT22;54576;52.020;5.536;2022-11-15T08:14:48;11.20;99.90
67777;DHT22;54576;52.020;5.536;2022-11-15T08:17:13;11.20;99.90
67777;DHT22;54576;52.020;5.536;2022-11-15T08:19:39;11.20;99.90
67777;DHT22;54576;52.020;5.536;2022-11-15T08:22:04;11.20;99.90
67777;DHT22;54576;52.020;5.536;2022-11-15T08:24:30;11.20;99.90
67777;DHT22;54576;52.020;5.536;2022-11-15T08:26:55;11.20;99.90
67777;DHT22;54576;52.020;5.536;2022-11-15T08:29:21;11.20;99.90
67777;DHT22;54576;52.020;5.536;2022-11-15T08:31:47;11.30;99.90
67777;DHT22;54576;52.020;5.536;2022-11-15T08:34:13;11.30;99.90
67777;DHT22;54576;52.020;5.536;2022-11-15T08:36:38;11.30;99.90
67777;DHT22;54576;52.020;5.536;2022-11-15T08:39:04;11.40;99.90
67777;DHT22;54576;52.020;5.536;2022-11-15T08:41:32;11.40;99.90
67777;DHT22;54576;52.020;5.536;2022-11-15T08:43:59;11.40;99.90
67777;DHT22;54576;52.020;5.536;2022-11-15T08:46:24;11.50;99.90
67777;DHT22;54576;52.020;5.536;2022-11-15T08:48:53;11.40;99.90
67777;DHT22;54576;52.020;5.536;2022-11-15T08:51:19;11.50;99.90
67777;DHT22;54576;52.020;5.536;2022-11-15T08:53:44;11.50;99.90
67777;DHT22;54576;52.020;5.536;2022-11-15T08:56:11;11.50;99.90
67777;DHT22;54576;52.020;5.536;2022-11-15T08:58:38;11.50;99.90
67777;DHT22;54576;52.020;5.536;2022-11-15T09:01:04;11.50;99.90
67777;DHT22;54576;52.020;5.536;2022-11-15T09:03:30;11.50;99.90
67777;DHT22;54576;52.020;5.536;2022-11-15T09:05:56;11.60;99.90
67777;DHT22;54576;52.020;5.536;2022-11-15T09:08:22;11.60;99.90
67777;DHT22;54576;52.020;5.536;2022-11-15T09:10:47;11.60;99.90
67777;DHT22;54576;52.020;5.536;2022-11-15T09:13:13;11.70;99.90
67777;DHT22;54576;52.020;5.536;2022-11-15T09:15:39;11.70;99.90
67777;DHT22;54576;52.020;5.536;2022-11-15T09:18:04;11.70;99.90
67777;DHT22;54576;52.020;5.536;2022-11-15T09:20:30;11.60;99.90
67777;DHT22;54576;52.020;5.536;2022-11-15T09:22:59;11.60;99.90
67777;DHT22;54576;52.020;5.536;2022-11-15T09:25:25;11.60;99.90
67777;DHT22;54576;52.020;5.536;2022-11-15T09:27:50;11.60;99.90
67777;DHT22;54576;52.020;5.536;2022-11-15T09:30:16;11.70;99.90
67777;DHT22;54576;52.020;5.536;2022-11-15T09:32:41;11.70;99.90
67777;DHT22;54576;52.020;5.536;2022-11-15T09:35:07;11.70;99.90
67777;DHT22;54576;52.020;5.536;2022-11-15T09:37:32;11.80;99.90
67777;DHT22;54576;52.020;5.536;2022-11-15T09:39:58;11.80;99.90
67777;DHT22;54576;52.020;5.536;2022-11-15T09:45:41;11.90;99.90
67777;DHT22;54576;52.020;5.536;2022-11-15T09:50:51;12.00;99.90
67777;DHT22;54576;52.020;5.536;2022-11-15T09:53:27;12.00;99.90
67777;DHT22;54576;52.020;5.536;2022-11-15T09:56:16;12.00;99.90
67777;DHT22;54576;52.020;5.536;2022-11-15T09:59:19;12.10;99.90
67777;DHT22;54576;52.020;5.536;2022-11-15T10:04:39;12.10;99.90
67777;DHT22;54576;52.020;5.536;2022-11-15T10:07:23;12.10;99.90
67777;DHT22;54576;52.020;5.536;2022-11-15T10:09:59;12.10;99.90
67777;DHT22;54576;52.020;5.536;2022-11-15T10:12:28;12.10;99.90
67777;DHT22;54576;52.020;5.536;2022-11-15T10:15:02;12.10;99.90
67777;DHT22;54576;52.020;5.536;2022-11-15T10:22:50;12.20;99.90
67777;DHT22;54576;52.020;5.536;2022-11-15T10:25:31;12.30;99.90
67777;DHT22;54576;52.020;5.536;2022-11-15T10:28:01;12.40;99.90
67777;DHT22;54576;52.020;5.536;2022-11-15T10:30:33;12.40;99.90
67777;DHT22;54576;52.020;5.536;2022-11-15T10:35:37;12.50;99.90
67777;DHT22;54576;52.020;5.536;2022-11-15T10:38:08;12.40;99.90
67777;DHT22;54576;52.020;5.536;2022-11-15T10:40:35;12.40;99.90
67777;DHT22;54576;52.020;5.536;2022-11-15T10:43:13;12.30;99.90
67777;DHT22;54576;52.020;5.536;2022-11-15T10:45:39;12.30;99.90
67777;DHT22;54576;52.020;5.536;2022-11-15T10:50:41;12.40;99.90
67777;DHT22;54576;52.020;5.536;2022-11-15T10:55:57;12.40;99.90
67777;DHT22;54576;52.020;5.536;2022-11-15T10:58:37;12.40;99.90
67777;DHT22;54576;52.020;5.536;2022-11-15T11:01:17;12.30;99.90
67777;DHT22;54576;52.020;5.536;2022-11-15T11:03:43;12.30;99.90
67777;DHT22;54576;52.020;5.536;2022-11-15T11:06:14;12.30;99.90
67777;DHT22;54576;52.020;5.536;2022-11-15T11:08:40;12.40;99.90
67777;DHT22;54576;52.020;5.536;2022-11-15T11:11:17;12.40;99.90
67777;DHT22;54576;52.020;5.536;2022-11-15T11:13:43;12.40;99.90
67777;DHT22;54576;52.020;5.536;2022-11-15T11:18:51;12.40;99.90
67777;DHT22;54576;52.020;5.536;2022-11-15T11:26:57;12.50;99.90
67777;DHT22;54576;52.020;5.536;2022-11-15T11:35:14;12.50;99.90
67777;DHT22;54576;52.020;5.536;2022-11-15T11:38:01;12.50;99.90
67777;DHT22;54576;52.020;5.536;2022-11-15T11:40:39;12.50;99.90
67777;DHT22;54576;52.020;5.536;2022-11-15T11:46:30;12.50;99.90
67777;DHT22;54576;52.020;5.536;2022-11-15T11:49:26;12.40;99.90
67777;DHT22;54576;52.020;5.536;2022-11-15T11:55:20;12.40;99.90
67777;DHT22;54576;52.020;5.536;2022-11-15T11:58:01;12.50;99.90
67777;DHT22;54576;52.020;5.536;2022-11-15T12:00:28;12.50;99.90
67777;DHT22;54576;52.020;5.536;2022-11-15T12:03:11;12.50;99.90
67777;DHT22;54576;52.020;5.536;2022-11-15T12:05:57;12.50;99.90
67777;DHT22;54576;52.020;5.536;2022-11-15T12:08:56;12.60;99.90
67777;DHT22;54576;52.020;5.536;2022-11-15T12:14:35;12.70;99.90
67777;DHT22;54576;52.020;5.536;2022-11-15T12:17:01;12.70;99.90
67777;DHT22;54576;52.020;5.536;2022-11-15T12:19:29;12.70;99.90
67777;DHT22;54576;52.020;5.536;2022-11-15T12:22:08;12.70;99.90
67777;DHT22;54576;52.020;5.536;2022-11-15T12:25:08;12.70;99.90
67777;DHT22;54576;52.020;5.536;2022-11-15T12:28:27;12.70;99.90
67777;DHT22;54576;52.020;5.536;2022-11-15T12:30:59;12.70;99.90
67777;DHT22;54576;52.020;5.536;2022-11-15T12:33:42;12.60;99.90
67777;DHT22;54576;52.020;5.536;2022-11-15T12:39:14;12.60;99.90
67777;DHT22;54576;52.020;5.536;2022-11-15T12:47:24;12.60;99.90
67777;DHT22;54576;52.020;5.536;2022-11-15T12:49:53;12.60;99.90
67777;DHT22;54576;52.020;5.536;2022-11-15T12:52:26;12.60;99.90
67777;DHT22;54576;52.020;5.536;2022-11-15T12:54:57;12.60;99.90
67777;DHT22;54576;52.020;5.536;2022-11-15T12:57:30;12.60;99.90
67777;DHT22;54576;52.020;5.536;2022-11-15T13:03:21;12.70;99.90
67777;DHT22;54576;52.020;5.536;2022-11-15T13:05:56;12.70;99.90
67777;DHT22;54576;52.020;5.536;2022-11-15T13:08:42;12.70;99.90
67777;DHT22;54576;52.020;5.536;2022-11-15T13:11:42;12.70;99.90
67777;DHT22;54576;52.020;5.536;2022-11-15T13:19:48;12.70;99.90
67777;DHT22;54576;52.020;5.536;2022-11-15T13:22:17;12.70;99.90
67777;DHT22;54576;52.020;5.536;2022-11-15T13:25:02;12.70;99.90
67777;DHT22;54576;52.020;5.536;2022-11-15T13:27:28;12.70;99.90
67777;DHT22;54576;52.020;5.536;2022-11-15T13:29:54;12.60;99.90
67777;DHT22;54576;52.020;5.536;2022-11-15T13:32:20;12.60;99.90
67777;DHT22;54576;52.020;5.536;2022-11-15T13:34:48;12.50;99.90
67777;DHT22;54576;52.020;5.536;2022-11-15T13:39:47;12.40;99.90
67777;DHT22;54576;52.020;5.536;2022-11-15T13:42:21;12.40;99.90
67777;DHT22;54576;52.020;5.536;2022-11-15T13:44:58;12.40;99.90
67777;DHT22;54576;52.020;5.536;2022-11-15T13:47:28;12.40;99.90
67777;DHT22;54576;52.020;5.536;2022-11-15T13:49:58;12.30;99.90
67777;DHT22;54576;52.020;5.536;2022-11-15T13:52:34;12.30;99.90
67777;DHT22;54576;52.020;5.536;2022-11-15T13:55:12;12.30;99.90
67777;DHT22;54576;52.020;5.536;2022-11-15T13:57:50;12.30;99.90
67777;DHT22;54576;52.020;5.536;2022-11-15T14:00:36;12.30;99.90
67777;DHT22;54576;52.020;5.536;2022-11-15T14:03:31;12.30;99.90
67777;DHT22;54576;52.020;5.536;2022-11-15T14:06:16;12.30;99.90
67777;DHT22;54576;52.020;5.536;2022-11-15T14:09:16;12.30;99.90
67777;DHT22;54576;52.020;5.536;2022-11-15T14:11:53;12.20;99.90
67777;DHT22;54576;52.020;5.536;2022-11-15T14:14:29;12.20;99.90
67777;DHT22;54576;52.020;5.536;2022-11-15T14:16:59;12.20;99.90
67777;DHT22;54576;52.020;5.536;2022-11-15T14:22:17;12.20;99.90
67777;DHT22;54576;52.020;5.536;2022-11-15T14:25:06;12.20;99.90
67777;DHT22;54576;52.020;5.536;2022-11-15T14:27:33;12.20;99.90
67777;DHT22;54576;52.020;5.536;2022-11-15T14:29:59;12.20;99.90
67777;DHT22;54576;52.020;5.536;2022-11-15T14:32:27;12.20;99.90
67777;DHT22;54576;52.020;5.536;2022-11-15T14:35:01;12.20;99.90
67777;DHT22;54576;52.020;5.536;2022-11-15T14:37:29;12.20;99.90
67777;DHT22;54576;52.020;5.536;2022-11-15T14:39:59;12.30;99.90
67777;DHT22;54576;52.020;5.536;2022-11-15T14:42:25;12.30;99.90
67777;DHT22;54576;52.020;5.536;2022-11-15T14:44:50;12.30;99.90
67777;DHT22;54576;52.020;5.536;2022-11-15T14:47:17;12.30;99.90
67777;DHT22;54576;52.020;5.536;2022-11-15T14:49:43;12.30;99.90
67777;DHT22;54576;52.020;5.536;2022-11-15T14:52:29;12.30;99.90
67777;DHT22;54576;52.020;5.536;2022-11-15T14:54:58;12.30;99.90
67777;DHT22;54576;52.020;5.536;2022-11-15T14:57:24;12.30;99.90
67777;DHT22;54576;52.020;5.536;2022-11-15T14:59:50;12.30;99.90
67777;DHT22;54576;52.020;5.536;2022-11-15T15:02:21;12.30;99.90
67777;DHT22;54576;52.020;5.536;2022-11-15T15:04:48;12.30;99.90
67777;DHT22;54576;52.020;5.536;2022-11-15T15:07:14;12.30;99.90
67777;DHT22;54576;52.020;5.536;2022-11-15T15:09:40;12.30;99.90
67777;DHT22;54576;52.020;5.536;2022-11-15T15:12:24;12.30;99.90
67777;DHT22;54576;52.020;5.536;2022-11-15T15:14:50;12.30;99.90
67777;DHT22;54576;52.020;5.536;2022-11-15T15:17:17;12.20;99.90
67777;DHT22;54576;52.020;5.536;2022-11-15T15:19:43;12.20;99.90
67777;DHT22;54576;52.020;5.536;2022-11-15T15:22:18;12.20;99.90
67777;DHT22;54576;52.020;5.536;2022-11-15T15:24:45;12.20;99.90
67777;DHT22;54576;52.020;5.536;2022-11-15T15:27:11;12.20;99.90
67777;DHT22;54576;52.020;5.536;2022-11-15T15:29:37;12.10;99.90
67777;DHT22;54576;52.020;5.536;2022-11-15T15:32:03;12.10;99.90
67777;DHT22;54576;52.020;5.536;2022-11-15T15:34:29;12.10;99.90
67777;DHT22;54576;52.020;5.536;2022-11-15T15:37:21;12.10;99.90
67777;DHT22;54576;52.020;5.536;2022-11-15T15:39:55;12.10;99.90
67777;DHT22;54576;52.020;5.536;2022-11-15T15:42:21;12.10;99.90
67777;DHT22;54576;52.020;5.536;2022-11-15T15:44:48;12.10;99.90
67777;DHT22;54576;52.020;5.536;2022-11-15T15:47:16;12.10;99.90
67777;DHT22;54576;52.020;5.536;2022-11-15T15:49:42;12.10;99.90
67777;DHT22;54576;52.020;5.536;2022-11-15T15:52:08;12.00;99.90
67777;DHT22;54576;52.020;5.536;2022-11-15T15:54:33;12.00;99.90
67777;DHT22;54576;52.020;5.536;2022-11-15T15:56:59;12.00;99.90
67777;DHT22;54576;52.020;5.536;2022-11-15T15:59:24;12.00;99.90
67777;DHT22;54576;52.020;5.536;2022-11-15T16:01:50;12.00;99.90
67777;DHT22;54576;52.020;5.536;2022-11-15T16:04:15;12.00;99.90
67777;DHT22;54576;52.020;5.536;2022-11-15T16:06:41;12.00;99.90
67777;DHT22;54576;52.020;5.536;2022-11-15T16:09:16;12.00;99.90
67777;DHT22;54576;52.020;5.536;2022-11-15T16:11:44;12.00;99.90
67777;DHT22;54576;52.020;5.536;2022-11-15T16:14:10;12.00;99.90
67777;DHT22;54576;52.020;5.536;2022-11-15T16:16:36;12.00;99.90
67777;DHT22;54576;52.020;5.536;2022-11-15T16:19:03;12.00;99.90
67777;DHT22;54576;52.020;5.536;2022-11-15T16:21:29;12.00;99.90
67777;DHT22;54576;52.020;5.536;2022-11-15T16:23:54;12.00;99.90
67777;DHT22;54576;52.020;5.536;2022-11-15T16:26:23;12.00;99.90
67777;DHT22;54576;52.020;5.536;2022-11-15T16:28:50;12.00;99.90
67777;DHT22;54576;52.020;5.536;2022-11-15T16:31:16;12.00;99.90
67777;DHT22;54576;52.020;5.536;2022-11-15T16:33:43;12.00;99.90
67777;DHT22;54576;52.020;5.536;2022-11-15T16:36:25;12.00;99.90
67777;DHT22;54576;52.020;5.536;2022-11-15T16:38:51;12.00;99.90
67777;DHT22;54576;52.020;5.536;2022-11-15T16:41:17;12.00;99.90
67777;DHT22;54576;52.020;5.536;2022-11-15T16:43:49;12.00;99.90
67777;DHT22;54576;52.020;5.536;2022-11-15T16:46:26;12.00;99.90
67777;DHT22;54576;52.020;5.536;2022-11-15T16:48:52;12.00;99.90
67777;DHT22;54576;52.020;5.536;2022-11-15T16:51:21;12.00;99.90
67777;DHT22;54576;52.020;5.536;2022-11-15T16:53:47;12.00;99.90
67777;DHT22;54576;52.020;5.536;2022-11-15T16:56:19;12.00;99.90
67777;DHT22;54576;52.020;5.536;2022-11-15T16:58:46;12.00;99.90
67777;DHT22;54576;52.020;5.536;2022-11-15T17:01:24;12.00;99.90
67777;DHT22;54576;52.020;5.536;2022-11-15T17:03:51;12.00;99.90
67777;DHT22;54576;52.020;5.536;2022-11-15T17:06:16;12.00;99.90
67777;DHT22;54576;52.020;5.536;2022-11-15T17:08:46;12.00;99.90
67777;DHT22;54576;52.020;5.536;2022-11-15T17:11:18;12.10;99.90
67777;DHT22;54576;52.020;5.536;2022-11-15T17:13:44;12.10;99.90
67777;DHT22;54576;52.020;5.536;2022-11-15T17:16:12;12.10;99.90
67777;DHT22;54576;52.020;5.536;2022-11-15T17:18:38;12.20;99.90
67777;DHT22;54576;52.020;5.536;2022-11-15T17:21:11;12.20;99.90
67777;DHT22;54576;52.020;5.536;2022-11-15T17:23:37;12.20;99.90